createdAt,value
2023-02-09T00:00:29.168Z,50.31
2023-02-09T00:01:29.500Z,50.13
2023-02-09T00:02:29.516Z,50.40
2023-02-09T00:03:29.515Z,50.62
2023-02-09T00:04:29.616Z,51.72
2023-02-09T00:05:29.822Z,52.33
2023-02-09T00:06:29.876Z,52.43
2023-02-09T00:07:29.944Z,54.38
2023-02-09T00:08:30.046Z,55.95
2023-02-09T00:09:30.192Z,56.79
2023-02-09T00:10:30.263Z,56.21
2023-02-09T00:11:30.421Z,56.02
2023-02-09T00:12:30.471Z,56.86
2023-02-09T00:13:30.588Z,58.46
2023-02-09T00:14:30.694Z,58.05
2023-02-09T00:15:30.793Z,58.54
2023-02-09T00:16:31.104Z,58.83
2023-02-09T00:17:31.026Z,58.91
2023-02-09T00:18:31.107Z,58.13
2023-02-09T00:19:33.189Z,55.99
2023-02-09T00:20:31.313Z,53.68
2023-02-09T00:21:31.651Z,51.88
2023-02-09T00:22:31.586Z,50.71
2023-02-09T00:23:31.696Z,49.89
2023-02-09T00:24:31.867Z,49.65
2023-02-09T00:25:31.893Z,48.84
2023-02-09T00:26:32.144Z,48.33
2023-02-09T00:27:32.131Z,47.59
2023-02-09T00:28:32.261Z,47.08
2023-02-09T00:29:32.356Z,46.30
2023-02-09T00:30:32.483Z,45.74
2023-02-09T00:31:32.730Z,45.49
2023-02-09T00:32:32.658Z,45.39
2023-02-09T00:33:32.801Z,45.19
2023-02-09T00:34:32.910Z,45.10
2023-02-09T00:35:33.101Z,45.19
2023-02-09T00:36:33.239Z,45.34
2023-02-09T00:37:33.294Z,45.44
2023-02-09T00:38:33.399Z,45.39
2023-02-09T00:39:33.489Z,45.44
2023-02-09T00:40:33.666Z,45.15
2023-02-09T00:41:33.954Z,45.69
2023-02-09T00:42:33.835Z,45.34
2023-02-09T00:43:33.949Z,45.34
2023-02-09T00:44:34.034Z,44.95
2023-02-09T00:45:34.171Z,44.81
2023-02-09T00:46:34.275Z,44.62
2023-02-09T00:47:34.444Z,44.28
2023-02-09T00:48:34.484Z,44.10
2023-02-09T00:49:34.624Z,44.00
2023-02-09T00:50:34.720Z,43.32
2023-02-09T00:51:34.822Z,43.05
2023-02-09T00:52:35.004Z,43.10
2023-02-09T00:53:35.047Z,42.48
2023-02-09T00:54:35.165Z,42.22
2023-02-09T00:55:35.261Z,42.14
2023-02-09T00:56:35.364Z,41.89
2023-02-09T00:57:35.590Z,41.76
2023-02-09T00:58:35.580Z,41.59
2023-02-09T00:59:35.714Z,41.51
2023-02-09T01:00:35.830Z,41.18
2023-02-09T01:01:36.034Z,40.86
2023-02-09T01:02:36.103Z,40.74
2023-02-09T01:03:36.145Z,40.78
2023-02-09T01:04:36.308Z,40.31
2023-02-09T01:05:36.371Z,40.31
2023-02-09T01:06:36.472Z,40.19
2023-02-09T01:07:36.600Z,40.31
2023-02-09T01:08:36.710Z,39.85
2023-02-09T01:09:36.811Z,39.66
2023-02-09T01:10:36.928Z,39.62
2023-02-09T01:11:37.030Z,39.36
2023-02-09T01:12:37.220Z,39.47
2023-02-09T01:13:37.260Z,39.25
2023-02-09T01:14:37.382Z,39.17
2023-02-09T01:15:37.498Z,39.03
2023-02-09T01:16:37.723Z,39.06
2023-02-09T01:17:37.806Z,38.99
2023-02-09T01:18:37.870Z,38.96
2023-02-09T01:19:37.980Z,38.99
2023-02-09T01:20:38.086Z,39.06
2023-02-09T01:21:38.280Z,38.85
2023-02-09T01:22:38.402Z,39.03
2023-02-09T01:23:38.497Z,38.92
2023-02-09T01:24:38.527Z,39.03
2023-02-09T01:25:38.708Z,39.25
2023-02-09T01:26:38.848Z,39.25
2023-02-09T01:27:38.916Z,39.36
2023-02-09T01:28:38.970Z,39.28
2023-02-09T01:29:39.122Z,39.32
2023-02-09T01:30:39.256Z,39.43
2023-02-09T01:31:39.602Z,39.70
2023-02-09T01:32:39.455Z,39.73
2023-02-09T01:33:39.558Z,39.88
2023-02-09T01:34:39.677Z,40.23
2023-02-09T01:35:39.798Z,40.12
2023-02-09T01:36:39.975Z,40.31
2023-02-09T01:37:40.034Z,40.43
2023-02-09T01:38:40.114Z,40.62
2023-02-09T01:39:40.234Z,40.50
2023-02-09T01:40:40.335Z,40.43
2023-02-09T01:41:40.528Z,40.35
2023-02-09T01:42:40.566Z,40.47
2023-02-09T01:43:40.672Z,40.27
2023-02-09T01:44:40.791Z,40.19
2023-02-09T01:45:40.891Z,40.00
2023-02-09T01:46:41.112Z,39.85
2023-02-09T01:47:41.192Z,40.19
2023-02-09T01:48:41.408Z,40.23
2023-02-09T01:49:41.452Z,40.19
2023-02-09T01:50:41.459Z,40.15
2023-02-09T01:51:41.577Z,40.04
2023-02-09T01:52:41.681Z,39.81
2023-02-09T01:53:41.801Z,40.00
2023-02-09T01:54:41.956Z,39.92
2023-02-09T01:55:42.046Z,39.58
2023-02-09T01:56:42.179Z,39.85
2023-02-09T01:57:42.260Z,39.81
2023-02-09T01:58:42.331Z,39.81
2023-02-09T01:59:42.447Z,39.51
2023-02-09T02:00:42.716Z,39.47
2023-02-09T02:01:42.789Z,39.81
2023-02-09T02:02:42.820Z,39.66
2023-02-09T02:03:42.870Z,39.36
2023-02-09T02:04:42.972Z,39.25
2023-02-09T02:05:43.093Z,39.43
2023-02-09T02:06:43.276Z,39.40
2023-02-09T02:07:43.318Z,39.36
2023-02-09T02:08:43.425Z,38.99
2023-02-09T02:09:43.598Z,39.36
2023-02-09T02:10:43.895Z,39.32
2023-02-09T02:11:43.839Z,39.17
2023-02-09T02:12:43.884Z,39.17
2023-02-09T02:13:44.001Z,39.40
2023-02-09T02:14:44.106Z,39.85
2023-02-09T02:15:44.283Z,39.58
2023-02-09T02:16:44.507Z,40.08
2023-02-09T02:17:44.540Z,40.31
2023-02-09T02:18:44.580Z,40.43
2023-02-09T02:19:44.678Z,40.74
2023-02-09T02:20:45.130Z,40.94
2023-02-09T02:21:44.960Z,40.94
2023-02-09T02:22:45.169Z,41.14
2023-02-09T02:23:45.118Z,41.47
2023-02-09T02:24:45.238Z,41.26
2023-02-09T02:25:45.339Z,41.22
2023-02-09T02:26:45.578Z,41.22
2023-02-09T02:27:45.579Z,41.47
2023-02-09T02:28:45.700Z,41.72
2023-02-09T02:29:45.806Z,42.70
2023-02-09T02:30:46.326Z,43.14
2023-02-09T02:31:46.023Z,43.46
2023-02-09T02:32:46.227Z,44.19
2023-02-09T02:33:46.261Z,44.28
2023-02-09T02:34:46.365Z,44.85
2023-02-09T02:35:46.474Z,45.05
2023-02-09T02:36:46.590Z,45.74
2023-02-09T02:37:46.792Z,46.35
2023-02-09T02:38:46.817Z,46.09
2023-02-09T02:39:46.902Z,46.35
2023-02-09T02:40:47.324Z,46.56
2023-02-09T02:41:47.139Z,46.19
2023-02-09T02:42:47.379Z,46.61
2023-02-09T02:43:47.367Z,46.76
2023-02-09T02:44:47.489Z,46.50
2023-02-09T02:45:47.590Z,46.45
2023-02-09T02:46:47.745Z,46.87
2023-02-09T02:47:47.833Z,46.71
2023-02-09T02:48:48.051Z,46.82
2023-02-09T02:49:48.045Z,46.30
2023-02-09T02:50:48.419Z,46.56
2023-02-09T02:51:48.261Z,46.45
2023-02-09T02:52:48.363Z,47.32
2023-02-09T02:53:49.498Z,48.39
2023-02-09T02:54:48.592Z,49.54
2023-02-09T02:55:49.200Z,50.56
2023-02-09T02:56:49.072Z,50.65
2023-02-09T02:57:48.921Z,51.43
2023-02-09T02:58:49.048Z,51.72
2023-02-09T02:59:49.139Z,51.53
2023-02-09T03:00:49.272Z,51.12
2023-02-09T03:01:49.517Z,52.17
2023-02-09T03:02:49.588Z,52.20
2023-02-09T03:03:49.651Z,51.94
2023-02-09T03:04:49.940Z,52.27
2023-02-09T03:05:49.828Z,52.73
2023-02-09T03:06:49.966Z,53.07
2023-02-09T03:07:50.050Z,53.34
2023-02-09T03:08:50.203Z,53.13
2023-02-09T03:09:50.272Z,53.37
2023-02-09T03:10:50.399Z,53.20
2023-02-09T03:11:50.505Z,52.83
2023-02-09T03:12:50.636Z,52.24
2023-02-09T03:13:50.754Z,52.07
2023-02-09T03:14:50.947Z,51.49
2023-02-09T03:15:50.991Z,51.15
2023-02-09T03:16:51.197Z,50.83
2023-02-09T03:17:51.426Z,50.77
2023-02-09T03:18:51.329Z,51.49
2023-02-09T03:19:51.419Z,51.69
2023-02-09T03:20:51.534Z,51.53
2023-02-09T03:21:51.634Z,51.12
2023-02-09T03:22:51.922Z,50.53
2023-02-09T03:23:51.855Z,49.89
2023-02-09T03:24:52.035Z,49.89
2023-02-09T03:25:52.075Z,49.95
2023-02-09T03:26:52.211Z,49.71
2023-02-09T03:27:52.410Z,49.54
2023-02-09T03:28:52.525Z,49.63
2023-02-09T03:29:52.551Z,49.60
2023-02-09T03:30:52.763Z,49.54
2023-02-09T03:31:52.835Z,49.77
2023-02-09T03:32:52.866Z,50.01
2023-02-09T03:33:53.050Z,49.92
2023-02-09T03:34:53.089Z,50.28
2023-02-09T03:35:53.199Z,49.74
2023-02-09T03:36:53.299Z,49.69
2023-02-09T03:37:53.421Z,48.84
2023-02-09T03:38:53.621Z,48.73
2023-02-09T03:39:53.628Z,48.81
2023-02-09T03:40:53.739Z,48.39
2023-02-09T03:41:53.848Z,48.58
2023-02-09T03:42:53.958Z,48.64
2023-02-09T03:43:54.160Z,48.64
2023-02-09T03:44:54.163Z,48.50
2023-02-09T03:45:54.246Z,48.64
2023-02-09T03:46:54.463Z,48.50
2023-02-09T03:47:54.489Z,48.96
2023-02-09T03:48:54.713Z,48.81
2023-02-09T03:49:54.715Z,48.96
2023-02-09T03:50:54.843Z,49.27
2023-02-09T03:51:54.945Z,50.04
2023-02-09T03:52:55.135Z,50.40
2023-02-09T03:53:55.282Z,51.21
2023-02-09T03:54:55.294Z,51.94
2023-02-09T03:55:55.420Z,52.60
2023-02-09T03:56:55.533Z,53.47
2023-02-09T03:57:55.658Z,54.42
2023-02-09T03:58:55.832Z,55.35
2023-02-09T03:59:55.970Z,56.52
2023-02-09T04:00:56.011Z,57.97
2023-02-09T04:01:56.134Z,59.67
2023-02-09T04:02:56.251Z,61.02
2023-02-09T04:03:56.345Z,63.92
2023-02-09T04:04:56.597Z,66.68
2023-02-09T04:05:56.569Z,69.80
2023-02-09T04:06:56.689Z,73.30
2023-02-09T04:07:56.788Z,76.53
2023-02-09T04:08:56.908Z,78.76
2023-02-09T04:09:57.066Z,80.05
2023-02-09T04:10:57.150Z,81.06
2023-02-09T04:11:57.304Z,81.69
2023-02-09T04:12:57.352Z,81.61
2023-02-09T04:13:57.507Z,81.69
2023-02-09T04:14:57.594Z,81.54
2023-02-09T04:15:57.787Z,80.98
2023-02-09T04:16:57.875Z,80.28
2023-02-09T04:17:57.911Z,78.39
2023-02-09T04:18:58.032Z,76.25
2023-02-09T04:19:58.159Z,76.18
2023-02-09T04:20:58.289Z,76.25
2023-02-09T04:21:58.500Z,77.09
2023-02-09T04:22:58.468Z,77.31
2023-02-09T04:23:58.580Z,78.32
2023-02-09T04:24:58.689Z,79.36
2023-02-09T04:25:58.797Z,81.38
2023-02-09T04:26:58.993Z,83.75
2023-02-09T04:27:59.063Z,85.03
2023-02-09T04:28:59.168Z,88.17
2023-02-09T04:29:59.270Z,91.06
2023-02-09T04:30:59.415Z,95.10
2023-02-09T04:31:59.722Z,96.13
2023-02-09T04:32:59.646Z,99.21
2023-02-09T04:33:59.750Z,101.82
2023-02-09T04:34:59.949Z,104.89
2023-02-09T04:36:00.142Z,106.70
2023-02-09T04:37:00.169Z,108.15
2023-02-09T04:38:00.321Z,110.22
2023-02-09T04:39:00.422Z,112.22
2023-02-09T04:40:00.600Z,115.32
2023-02-09T04:41:00.679Z,118.02
2023-02-09T04:42:00.840Z,121.10
2023-02-09T04:43:00.956Z,123.43
2023-02-09T04:44:01.081Z,126.42
2023-02-09T04:45:01.300Z,130.07
2023-02-09T04:46:01.466Z,131.71
2023-02-09T04:47:01.520Z,135.12
2023-02-09T04:48:01.619Z,137.91
2023-02-09T04:49:01.756Z,143.49
2023-02-09T04:50:01.900Z,145.74
2023-02-09T04:51:02.104Z,150.74
2023-02-09T04:52:02.146Z,154.37
2023-02-09T04:53:02.302Z,157.28
2023-02-09T04:54:02.449Z,160.76
2023-02-09T04:55:02.577Z,164.57
2023-02-09T04:56:02.796Z,166.71
2023-02-09T04:57:02.826Z,167.21
2023-02-09T04:58:02.968Z,169.76
2023-02-09T04:59:03.118Z,169.42
2023-02-09T05:00:03.245Z,167.88
2023-02-09T05:01:03.590Z,167.71
2023-02-09T05:02:03.512Z,167.21
2023-02-09T05:03:03.651Z,161.70
2023-02-09T05:04:03.815Z,161.54
2023-02-09T05:05:03.934Z,161.39
2023-02-09T05:06:04.135Z,162.33
2023-02-09T05:07:04.187Z,162.96
2023-02-09T05:08:04.328Z,163.44
2023-02-09T05:09:04.488Z,163.12
2023-02-09T05:10:04.584Z,162.17
2023-02-09T05:11:04.843Z,161.23
2023-02-09T05:12:04.851Z,157.73
2023-02-09T05:13:05.018Z,158.63
2023-02-09T05:14:05.107Z,158.63
2023-02-09T05:15:05.251Z,156.54
2023-02-09T05:16:05.467Z,157.13
2023-02-09T05:17:05.514Z,157.28
2023-02-09T05:18:05.637Z,158.32
2023-02-09T05:19:05.772Z,157.88
2023-02-09T05:20:05.907Z,158.48
2023-02-09T05:21:06.158Z,158.48
2023-02-09T05:22:06.194Z,158.78
2023-02-09T05:23:06.339Z,157.88
2023-02-09T05:24:06.453Z,158.48
2023-02-09T05:25:06.608Z,156.69
2023-02-09T05:26:06.848Z,154.94
2023-02-09T05:27:06.884Z,148.60
2023-02-09T05:28:07.029Z,147.16
2023-02-09T05:29:07.153Z,143.98
2023-02-09T05:30:07.274Z,143.86
2023-02-09T05:31:07.501Z,144.11
2023-02-09T05:32:07.571Z,149.40
2023-02-09T05:33:07.684Z,150.74
2023-02-09T05:34:07.795Z,151.29
2023-02-09T05:35:08.546Z,153.66
2023-02-09T05:36:08.121Z,153.38
2023-02-09T05:37:08.243Z,151.98
2023-02-09T05:38:08.330Z,147.94
2023-02-09T05:39:08.470Z,156.10
2023-02-09T05:40:08.612Z,155.23
2023-02-09T05:41:08.837Z,155.81
2023-02-09T05:42:08.888Z,160.61
2023-02-09T05:43:09.001Z,164.25
2023-02-09T05:44:09.295Z,167.71
2023-02-09T05:45:09.279Z,172.93
2023-02-09T05:46:09.566Z,173.83
2023-02-09T05:47:09.516Z,172.57
2023-02-09T05:48:09.707Z,173.65
2023-02-09T05:49:09.765Z,173.47
2023-02-09T05:50:09.896Z,174.01
2023-02-09T05:51:10.028Z,173.11
2023-02-09T05:52:10.214Z,173.47
2023-02-09T05:53:10.291Z,168.05
2023-02-09T05:54:10.507Z,162.80
2023-02-09T05:55:10.653Z,162.96
2023-02-09T05:56:10.693Z,159.08
2023-02-09T05:57:10.910Z,152.12
2023-02-09T05:58:10.952Z,149.13
2023-02-09T05:59:11.090Z,148.20
2023-02-09T06:00:11.208Z,148.86
2023-02-09T06:01:11.338Z,148.20
2023-02-09T06:02:11.666Z,144.11
2023-02-09T06:03:11.659Z,142.02
2023-02-09T06:04:11.739Z,138.03
2023-02-09T06:05:11.916Z,135.89
2023-02-09T06:06:12.015Z,138.14
2023-02-09T06:07:12.213Z,137.91
2023-02-09T06:08:12.253Z,137.46
2023-02-09T06:09:12.393Z,137.91
2023-02-09T06:10:12.569Z,138.14
2023-02-09T06:11:12.574Z,138.71
2023-02-09T06:12:12.721Z,136.34
2023-02-09T06:13:12.856Z,133.71
2023-02-09T06:14:13.019Z,133.50
2023-02-09T06:15:13.173Z,133.07
2023-02-09T06:16:13.244Z,130.17
2023-02-09T06:17:13.390Z,127.09
2023-02-09T06:18:13.490Z,123.61
2023-02-09T06:19:13.611Z,118.27
2023-02-09T06:20:13.752Z,114.38
2023-02-09T06:21:13.878Z,112.90
2023-02-09T06:22:14.071Z,115.25
2023-02-09T06:23:14.147Z,114.14
2023-02-09T06:24:14.282Z,114.30
2023-02-09T06:25:14.422Z,109.50
2023-02-09T06:26:14.554Z,107.38
2023-02-09T06:27:14.759Z,104.75
2023-02-09T06:28:14.849Z,101.88
2023-02-09T06:29:14.951Z,98.45
2023-02-09T06:30:15.117Z,93.91
2023-02-09T06:31:15.312Z,91.06
2023-02-09T06:32:15.340Z,86.89
2023-02-09T06:33:15.422Z,83.49
2023-02-09T06:34:15.472Z,82.10
2023-02-09T06:35:15.580Z,85.03
2023-02-09T06:36:15.678Z,85.90
2023-02-09T06:37:15.796Z,90.27
2023-02-09T06:38:16.021Z,93.93
2023-02-09T06:39:16.008Z,97.64
2023-02-09T06:40:16.134Z,102.13
2023-02-09T06:41:16.259Z,105.02
2023-02-09T06:42:16.506Z,106.22
2023-02-09T06:43:16.620Z,105.62
2023-02-09T06:44:16.663Z,105.22
2023-02-09T06:45:16.802Z,106.76
2023-02-09T06:46:16.963Z,108.86
2023-02-09T06:47:17.067Z,107.87
2023-02-09T06:48:17.234Z,105.68
2023-02-09T06:49:17.286Z,104.36
2023-02-09T06:50:17.993Z,103.20
2023-02-09T06:51:17.536Z,99.69
2023-02-09T06:52:17.646Z,96.85
2023-02-09T06:53:17.755Z,93.80
2023-02-09T06:54:17.871Z,94.46
2023-02-09T06:55:18.026Z,93.61
2023-02-09T06:56:18.090Z,92.47
2023-02-09T06:57:18.191Z,88.92
2023-02-09T06:58:18.353Z,87.52
2023-02-09T06:59:18.410Z,86.79
2023-02-09T07:00:18.512Z,84.25
2023-02-09T07:01:18.672Z,81.78
2023-02-09T07:02:18.754Z,81.69
2023-02-09T07:03:18.915Z,82.18
2023-02-09T07:04:18.987Z,81.22
2023-02-09T07:05:19.076Z,79.67
2023-02-09T07:06:19.205Z,78.17
2023-02-09T07:07:19.308Z,75.49
2023-02-09T07:08:19.480Z,73.04
2023-02-09T07:09:19.527Z,72.22
2023-02-09T07:10:19.649Z,71.42
2023-02-09T07:11:19.744Z,71.42
2023-02-09T07:12:19.861Z,73.69
2023-02-09T07:13:19.983Z,73.30
2023-02-09T07:14:20.098Z,72.98
2023-02-09T07:15:20.192Z,74.08
2023-02-09T07:16:20.409Z,74.81
2023-02-09T07:17:20.418Z,74.14
2023-02-09T07:18:20.574Z,73.30
2023-02-09T07:19:20.746Z,76.39
2023-02-09T07:20:20.737Z,78.54
2023-02-09T07:21:20.842Z,80.51
2023-02-09T07:22:20.959Z,83.24
2023-02-09T07:23:21.073Z,83.91
2023-02-09T07:24:21.174Z,82.75
2023-02-09T07:25:21.277Z,83.33
2023-02-09T07:26:21.413Z,83.49
2023-02-09T07:27:21.524Z,85.03
2023-02-09T07:28:21.731Z,86.08
2023-02-09T07:29:21.786Z,87.98
2023-02-09T07:30:21.888Z,88.92
2023-02-09T07:31:22.072Z,90.86
2023-02-09T07:32:22.088Z,93.72
2023-02-09T07:33:22.210Z,94.78
2023-02-09T07:34:22.312Z,94.60
2023-02-09T07:35:22.419Z,95.74
2023-02-09T07:36:22.527Z,96.01
2023-02-09T07:37:22.642Z,95.96
2023-02-09T07:38:22.797Z,97.36
2023-02-09T07:39:22.947Z,101.82
2023-02-09T07:40:23.118Z,107.80
2023-02-09T07:41:23.096Z,111.40
2023-02-09T07:42:23.492Z,114.61
2023-02-09T07:43:23.353Z,117.43
2023-02-09T07:44:23.504Z,120.49
2023-02-09T07:45:23.657Z,124.44
2023-02-09T07:46:23.855Z,125.00
2023-02-09T07:47:23.923Z,121.54
2023-02-09T07:48:24.073Z,121.54
2023-02-09T07:49:24.172Z,123.06
2023-02-09T07:50:24.393Z,125.28
2023-02-09T07:51:24.398Z,128.27
2023-02-09T07:52:24.539Z,127.58
2023-02-09T07:53:24.670Z,127.58
2023-02-09T07:54:24.817Z,125.38
2023-02-09T07:55:24.963Z,123.70
2023-02-09T07:56:25.118Z,126.61
2023-02-09T07:57:25.238Z,120.92
2023-02-09T07:58:25.373Z,121.19
2023-02-09T07:59:25.588Z,114.22
2023-02-09T08:00:25.634Z,113.99
2023-02-09T08:01:25.818Z,110.88
2023-02-09T08:02:25.925Z,108.15
2023-02-09T08:03:26.089Z,103.46
2023-02-09T08:04:26.252Z,103.46
2023-02-09T08:05:26.407Z,104.69
2023-02-09T08:06:40.680Z,105.75
2023-02-09T08:07:27.584Z,107.94
2023-02-09T08:08:26.720Z,110.51
2023-02-09T08:09:26.933Z,108.22
2023-02-09T08:10:27.111Z,103.71
2023-02-09T08:11:27.121Z,102.06
2023-02-09T08:12:27.356Z,95.96
2023-02-09T08:13:27.379Z,96.35
2023-02-09T08:14:27.513Z,98.51
2023-02-09T08:15:27.588Z,99.63
2023-02-09T08:16:27.746Z,105.02
2023-02-09T08:17:27.871Z,109.00
2023-02-09T08:18:27.954Z,111.25
2023-02-09T08:19:28.115Z,110.73
2023-02-09T08:20:28.225Z,117.19
2023-02-09T08:21:28.340Z,123.34
2023-02-09T08:22:28.464Z,121.98
2023-02-09T08:23:28.540Z,130.47
2023-02-09T08:24:28.647Z,140.82
2023-02-09T08:25:28.760Z,145.74
2023-02-09T08:26:28.891Z,156.84
2023-02-09T08:27:29.029Z,171.15
2023-02-09T08:28:41.972Z,178.86
2023-02-09T08:29:30.342Z,184.19
2023-02-09T08:30:29.431Z,184.79
2023-02-09T08:31:29.668Z,181.78
2023-02-09T08:32:29.669Z,190.14
2023-02-09T08:33:29.848Z,196.05
2023-02-09T08:34:29.986Z,203.21
2023-02-09T08:35:30.824Z,209.84
2023-02-09T08:36:30.196Z,220.71
2023-02-09T08:37:30.344Z,226.03
2023-02-09T08:38:30.507Z,236.28
2023-02-09T08:39:30.721Z,247.14
2023-02-09T08:40:30.948Z,251.50
2023-02-09T08:41:30.874Z,256.61
2023-02-09T08:42:30.985Z,263.41
2023-02-09T08:43:31.134Z,271.47
2023-02-09T08:44:31.311Z,276.74
2023-02-09T08:45:31.472Z,282.70
2023-02-09T08:46:31.722Z,298.38
2023-02-09T08:47:31.645Z,304.76
2023-02-09T08:48:32.394Z,318.05
2023-02-09T08:49:31.974Z,330.55
2023-02-09T08:50:32.095Z,335.27
2023-02-09T08:51:32.200Z,333.57
2023-02-09T08:52:32.281Z,339.08
2023-02-09T08:53:32.411Z,339.43
2023-02-09T08:54:32.625Z,345.51
2023-02-09T08:55:32.714Z,353.33
2023-02-09T08:56:32.819Z,365.53
2023-02-09T08:57:43.647Z,386.35
2023-02-09T08:58:34.046Z,400.50
2023-02-09T08:59:33.237Z,420.98
2023-02-09T09:00:33.412Z,436.69
2023-02-09T09:01:33.471Z,446.34
2023-02-09T09:02:33.595Z,462.44
2023-02-09T09:03:33.706Z,480.77
2023-02-09T09:04:33.801Z,488.16
2023-02-09T09:05:33.922Z,496.15
2023-02-09T09:06:34.022Z,496.15
2023-02-09T09:07:34.126Z,509.42
2023-02-09T09:08:34.258Z,523.42
2023-02-09T09:09:34.353Z,525.07
2023-02-09T09:10:34.454Z,525.89
2023-02-09T09:11:34.582Z,533.04
2023-02-09T09:12:34.690Z,540.82
2023-02-09T09:13:34.823Z,533.47
2023-02-09T09:14:34.872Z,538.20
2023-02-09T09:15:35.096Z,542.58
2023-02-09T09:16:35.172Z,557.55
2023-02-09T09:17:35.177Z,577.84
2023-02-09T09:18:35.398Z,576.35
2023-02-09T09:19:35.437Z,590.12
2023-02-09T09:20:35.498Z,591.69
2023-02-09T09:21:35.600Z,600.21
2023-02-09T09:22:35.707Z,598.06
2023-02-09T09:23:35.868Z,596.98
2023-02-09T09:24:35.998Z,590.64
2023-02-09T09:25:36.056Z,607.32
2023-02-09T09:26:36.190Z,623.79
2023-02-09T09:27:36.290Z,629.68
2023-02-09T09:28:36.490Z,633.27
2023-02-09T09:29:36.486Z,647.41
2023-02-09T09:30:36.755Z,653.76
2023-02-09T09:31:36.799Z,660.89
2023-02-09T09:32:36.993Z,647.41
2023-02-09T09:33:37.000Z,649.30
2023-02-09T09:34:37.060Z,659.58
2023-02-09T09:35:37.201Z,683.93
2023-02-09T09:36:37.403Z,692.45
2023-02-09T09:37:37.405Z,698.25
2023-02-09T09:38:37.602Z,698.25
2023-02-09T09:39:37.676Z,705.64
2023-02-09T09:40:37.763Z,712.43
2023-02-09T09:41:37.885Z,713.19
2023-02-09T09:42:38.003Z,727.19
2023-02-09T09:43:38.148Z,732.78
2023-02-09T09:44:38.210Z,742.58
2023-02-09T09:45:38.448Z,740.10
2023-02-09T09:46:38.494Z,774.36
2023-02-09T09:47:38.564Z,798.92
2023-02-09T09:48:38.677Z,800.84
2023-02-09T09:49:38.799Z,808.11
2023-02-09T09:50:38.894Z,809.09
2023-02-09T09:51:39.116Z,826.11
2023-02-09T09:52:39.121Z,816.01
2023-02-09T09:53:39.230Z,818.52
2023-02-09T09:54:39.338Z,827.14
2023-02-09T09:55:39.466Z,844.40
2023-02-09T09:56:39.619Z,828.16
2023-02-09T09:57:39.679Z,841.21
2023-02-09T09:58:39.773Z,853.03
2023-02-09T09:59:39.996Z,850.86
2023-02-09T10:00:39.982Z,862.96
2023-02-09T10:01:40.205Z,878.29
2023-02-09T10:02:40.239Z,910.64
2023-02-09T10:03:40.369Z,936.84
2023-02-09T10:04:40.478Z,965.29
2023-02-09T10:05:40.570Z,980.18
2023-02-09T10:06:40.729Z,1003.01
2023-02-09T10:07:40.773Z,1011.36
2023-02-09T10:08:40.922Z,1021.42
2023-02-09T10:09:41.065Z,1026.13
2023-02-09T10:10:41.225Z,1023.77
2023-02-09T10:11:41.439Z,1010.60
2023-02-09T10:12:41.470Z,1014.44
2023-02-09T10:13:41.652Z,1004.51
2023-02-09T10:14:41.855Z,1012.90
2023-02-09T10:15:41.862Z,1017.53
2023-02-09T10:16:42.041Z,1032.48
2023-02-09T10:17:42.203Z,1043.78
2023-02-09T10:18:42.263Z,1035.69
2023-02-09T10:19:42.540Z,1019.86
2023-02-09T10:20:42.528Z,1034.08
2023-02-09T10:21:42.661Z,1058.68
2023-02-09T10:22:42.802Z,1068.85
2023-02-09T10:23:42.988Z,1078.35
2023-02-09T10:24:43.068Z,1079.22
2023-02-09T10:25:43.222Z,1088.91
2023-02-09T10:26:43.320Z,1106.96
2023-02-09T10:27:43.478Z,1128.49
2023-02-09T10:28:43.880Z,1138.11
2023-02-09T10:29:43.739Z,1142.98
2023-02-09T10:30:43.913Z,1143.96
2023-02-09T10:31:44.113Z,1155.84
2023-02-09T10:32:44.122Z,1153.85
2023-02-09T10:33:44.288Z,1158.85
2023-02-09T10:34:44.387Z,1163.91
2023-02-09T10:35:44.983Z,1167.98
2023-02-09T10:36:44.646Z,1172.08
2023-02-09T10:37:44.744Z,1165.94
2023-02-09T10:38:44.985Z,1158.85
2023-02-09T10:39:45.125Z,1136.17
2023-02-09T10:40:45.170Z,1144.94
2023-02-09T10:41:45.308Z,1156.84
2023-02-09T10:42:45.469Z,1169.00
2023-02-09T10:43:45.649Z,1165.94
2023-02-09T10:44:45.683Z,1170.03
2023-02-09T10:45:46.105Z,1160.87
2023-02-09T10:46:45.969Z,1167.98
2023-02-09T10:47:46.070Z,1174.14
2023-02-09T10:48:46.269Z,1181.42
2023-02-09T10:49:46.339Z,1183.51
2023-02-09T10:50:46.508Z,1169.00
2023-02-09T10:51:46.670Z,1158.85
2023-02-09T10:52:46.717Z,1160.87
2023-02-09T10:53:46.820Z,1150.86
2023-02-09T10:54:46.984Z,1143.96
2023-02-09T10:55:47.372Z,1151.85
2023-02-09T10:56:47.218Z,1166.96
2023-02-09T10:57:47.347Z,1173.11
2023-02-09T10:58:47.455Z,1196.24
2023-02-09T10:59:47.781Z,1202.70
2023-02-09T11:00:47.727Z,1188.78
2023-02-09T11:01:47.881Z,1165.94
2023-02-09T11:02:48.020Z,1175.18
2023-02-09T11:03:48.125Z,1191.96
2023-02-09T11:04:48.359Z,1205.96
2023-02-09T11:05:48.760Z,1209.24
2023-02-09T11:06:48.566Z,1187.72
2023-02-09T11:07:48.640Z,1189.84
2023-02-09T11:08:48.749Z,1221.41
2023-02-09T11:09:48.958Z,1224.77
2023-02-09T11:10:49.228Z,1244.18
2023-02-09T11:11:49.164Z,1250.00
2023-02-09T11:12:49.344Z,1276.29
2023-02-09T11:13:49.441Z,1273.85
2023-02-09T11:14:49.553Z,1270.22
2023-02-09T11:15:49.871Z,1282.42
2023-02-09T11:16:49.798Z,1287.37
2023-02-09T11:17:49.920Z,1311.39
2023-02-09T11:18:50.005Z,1340.36
2023-02-09T11:19:50.187Z,1339.02
2023-02-09T11:20:50.359Z,1360.86
2023-02-09T11:21:50.395Z,1352.58
2023-02-09T11:22:50.590Z,1360.86
2023-02-09T11:23:50.661Z,1366.43
2023-02-09T11:24:50.794Z,1389.18
2023-02-09T11:25:51.011Z,1373.46
2023-02-09T11:26:51.104Z,1417.20
2023-02-09T11:27:51.267Z,1420.21
2023-02-09T11:28:51.305Z,1427.81
2023-02-09T11:29:51.473Z,1389.18
2023-02-09T11:30:51.746Z,1377.71
2023-02-09T11:31:51.758Z,1394.98
2023-02-09T11:32:51.807Z,1399.37
2023-02-09T11:33:51.965Z,1429.34
2023-02-09T11:34:52.056Z,1384.85
2023-02-09T11:35:52.313Z,1408.23
2023-02-09T11:36:52.341Z,1438.58
2023-02-09T11:37:52.573Z,1420.21
2023-02-09T11:38:52.627Z,1421.72
2023-02-09T11:39:52.857Z,1443.24
2023-02-09T11:40:52.935Z,1459.02
2023-02-09T11:41:53.075Z,1495.80
2023-02-09T11:42:53.142Z,1510.18
2023-02-09T11:43:53.320Z,1502.53
2023-02-09T11:44:53.427Z,1515.32
2023-02-09T11:45:53.493Z,1468.65
2023-02-09T11:46:53.714Z,1462.21
2023-02-09T11:47:53.793Z,1452.67
2023-02-09T11:48:53.933Z,1468.65
2023-02-09T11:49:54.076Z,1488.29
2023-02-09T11:50:54.191Z,1511.89
2023-02-09T11:51:54.431Z,1535.36
2023-02-09T11:52:54.470Z,1511.89
2023-02-09T11:53:54.629Z,1526.59
2023-02-09T11:54:54.705Z,1514.46
2023-02-09T11:55:54.867Z,1496.64
2023-02-09T11:56:55.114Z,1484.98
2023-02-09T11:57:55.100Z,1457.42
2023-02-09T11:58:55.241Z,1467.03
2023-02-09T11:59:55.388Z,1496.64
2023-02-09T12:01:06.909Z,1505.07
2023-02-09T12:01:56.685Z,1509.33
2023-02-09T12:02:55.804Z,1533.60
2023-02-09T12:03:55.865Z,1550.52
2023-02-09T12:04:56.082Z,1552.32
2023-02-09T12:05:56.109Z,1550.52
2023-02-09T12:06:56.397Z,1572.44
2023-02-09T12:07:56.443Z,1563.23
2023-02-09T12:08:56.486Z,1544.24
2023-02-09T12:09:56.691Z,1576.15
2023-02-09T12:10:56.746Z,1572.44
2023-02-09T12:11:56.878Z,1571.51
2023-02-09T12:12:57.122Z,1564.15
2023-02-09T12:13:57.157Z,1591.18
2023-02-09T12:14:57.341Z,1629.04
2023-02-09T12:15:57.561Z,1634.03
2023-02-09T12:16:57.543Z,1651.20
2023-02-09T12:17:57.763Z,1635.03
2023-02-09T12:18:57.807Z,1630.04
2023-02-09T12:19:57.943Z,1616.22
2023-02-09T12:20:58.094Z,1629.04
2023-02-09T12:21:58.214Z,1653.25
2023-02-09T12:22:58.345Z,1651.20
2023-02-09T12:23:59.949Z,1684.54
2023-02-09T12:25:00.245Z,1689.87
2023-02-09T12:25:58.819Z,1729.27
2023-02-09T12:26:58.860Z,1712.64
2023-02-09T12:27:59.030Z,1760.05
2023-02-09T12:28:59.141Z,1741.68
2023-02-09T12:29:59.273Z,1772.91
2023-02-09T12:30:59.498Z,1742.82
2023-02-09T12:31:59.561Z,1745.10
2023-02-09T12:32:59.666Z,1729.27
2023-02-09T12:33:59.884Z,1721.47
2023-02-09T12:34:59.929Z,1736.02
2023-02-09T12:36:00.136Z,1732.64